createdAt,value
2019-05-23T00:00:29.381Z,50.82
2019-05-23T00:02:58.929Z,50.28
2019-05-23T00:05:35.351Z,50.02
2019-05-23T00:08:09.468Z,50.69
2019-05-23T00:10:42.973Z,51.24
2019-05-23T00:13:15.208Z,51.57
2019-05-23T00:15:47.043Z,51.37
2019-05-23T00:18:21.127Z,52.01
2019-05-23T00:20:48.205Z,52.86
2019-05-23T00:23:17.487Z,52.34
2019-05-23T00:25:46.927Z,51.99
2019-05-23T00:28:16.808Z,52.30
2019-05-23T00:30:57.842Z,51.70
2019-05-23T00:33:29.094Z,51.52
2019-05-23T00:36:00.478Z,52.03
2019-05-23T00:38:29.771Z,52.02
2019-05-23T00:41:00.277Z,51.92
2019-05-23T00:43:31.122Z,52.09
2019-05-23T00:46:00.874Z,53.39
2019-05-23T00:48:30.169Z,52.56
2019-05-23T00:51:04.979Z,53.12
2019-05-23T00:53:37.261Z,53.10
2019-05-23T00:56:09.018Z,52.96
2019-05-23T00:58:39.386Z,52.95
2019-05-23T01:01:09.062Z,53.62
2019-05-23T01:03:39.888Z,54.17
2019-05-23T01:06:10.523Z,53.45
2019-05-23T01:08:40.507Z,53.53
2019-05-23T01:11:10.810Z,52.71
2019-05-23T01:13:40.248Z,52.67
2019-05-23T01:16:09.739Z,52.60
2019-05-23T01:18:40.077Z,53.03
2019-05-23T01:21:37.531Z,52.89
2019-05-23T01:24:14.237Z,52.60
2019-05-23T01:26:43.983Z,53.42
2019-05-23T01:29:14.117Z,52.46
2019-05-23T01:31:45.053Z,52.76
2019-05-23T01:34:14.790Z,52.42
2019-05-23T01:36:45.771Z,52.56
2019-05-23T01:39:15.225Z,52.56
2019-05-23T01:41:44.933Z,53.40
2019-05-23T01:44:14.395Z,53.73
2019-05-23T01:46:43.844Z,54.69
2019-05-23T01:49:13.589Z,53.61
2019-05-23T01:51:42.909Z,54.07
2019-05-23T01:54:12.801Z,53.30
2019-05-23T01:56:42.527Z,53.74
2019-05-23T01:59:13.315Z,53.72
2019-05-23T02:01:42.969Z,53.64
2019-05-23T02:04:12.278Z,54.12
2019-05-23T02:06:41.687Z,54.53
2019-05-23T02:09:12.230Z,54.04
2019-05-23T02:11:42.063Z,53.97
2019-05-23T02:14:12.072Z,53.86
2019-05-23T02:16:42.302Z,54.38
2019-05-23T02:19:13.770Z,54.03
2019-05-23T02:21:44.657Z,53.56
2019-05-23T02:24:15.032Z,54.25
2019-05-23T02:26:44.792Z,53.93
2019-05-23T02:29:14.141Z,54.05
2019-05-23T02:31:45.325Z,54.10
2019-05-23T02:34:15.378Z,53.73
2019-05-23T02:36:45.543Z,53.75
2019-05-23T02:39:42.857Z,53.54
2019-05-23T02:42:46.219Z,54.05
2019-05-23T02:45:19.213Z,53.84
2019-05-23T02:47:53.084Z,54.02
2019-05-23T02:50:29.483Z,54.03
2019-05-23T02:53:01.119Z,54.55
2019-05-23T02:55:37.309Z,54.12
2019-05-23T02:58:25.961Z,53.78
2019-05-23T03:01:36.546Z,53.97
2019-05-23T03:04:12.652Z,54.58
2019-05-23T03:06:41.895Z,53.49
2019-05-23T03:09:12.719Z,54.28
2019-05-23T03:11:45.580Z,54.42
2019-05-23T03:14:16.608Z,53.92
2019-05-23T03:16:48.817Z,53.60
2019-05-23T03:19:37.125Z,53.52
2019-05-23T03:22:34.300Z,54.00
2019-05-23T03:25:09.257Z,53.87
2019-05-23T03:27:44.506Z,54.03
2019-05-23T03:30:21.173Z,53.89
2019-05-23T03:32:55.653Z,53.23
2019-05-23T03:35:29.920Z,53.72
2019-05-23T03:37:59.964Z,53.17
2019-05-23T03:40:30.497Z,53.15
2019-05-23T03:43:01.158Z,55.21
2019-05-23T03:45:33.055Z,53.51
2019-05-23T03:48:02.995Z,53.58
2019-05-23T03:50:33.052Z,54.77
2019-05-23T03:53:03.207Z,54.90
2019-05-23T03:55:32.761Z,53.91
2019-05-23T03:58:02.822Z,53.80
2019-05-23T04:00:37.344Z,53.15
2019-05-23T04:03:07.748Z,52.46
2019-05-23T04:05:37.369Z,52.59
2019-05-23T04:08:09.444Z,53.15
2019-05-23T04:10:39.038Z,53.41
2019-05-23T04:13:08.734Z,52.80
2019-05-23T04:15:38.175Z,53.33
2019-05-23T04:18:08.042Z,52.65
2019-05-23T04:20:37.482Z,52.66
2019-05-23T04:23:07.528Z,52.78
2019-05-23T04:25:36.904Z,52.45
2019-05-23T04:28:06.503Z,52.84
2019-05-23T04:30:35.771Z,52.43
2019-05-23T04:33:05.437Z,51.86
2019-05-23T04:35:35.273Z,52.65
2019-05-23T04:38:05.960Z,52.57
2019-05-23T04:40:35.657Z,51.05
2019-05-23T04:43:04.966Z,49.02
2019-05-23T04:45:34.453Z,47.40
2019-05-23T04:48:04.283Z,47.57
2019-05-23T04:50:34.184Z,47.62
2019-05-23T04:53:04.319Z,50.02
2019-05-23T04:55:34.049Z,50.45
2019-05-23T04:58:04.819Z,51.57
2019-05-23T05:00:53.712Z,51.50
2019-05-23T05:03:23.807Z,50.64
2019-05-23T05:05:53.285Z,51.47
2019-05-23T05:08:22.697Z,51.23
2019-05-23T05:10:52.545Z,50.98
2019-05-23T05:13:24.983Z,50.25
2019-05-23T05:15:55.284Z,48.57
2019-05-23T05:18:24.619Z,44.39
2019-05-23T05:20:54.169Z,42.93
2019-05-23T05:23:23.724Z,45.58
2019-05-23T05:25:53.194Z,47.59
2019-05-23T05:28:22.522Z,48.40
2019-05-23T05:30:51.876Z,47.44
2019-05-23T05:33:21.178Z,46.66
2019-05-23T05:35:50.677Z,47.53
2019-05-23T05:38:20.880Z,46.97
2019-05-23T05:40:50.670Z,46.58
2019-05-23T05:43:20.754Z,47.14
2019-05-23T05:45:50.254Z,47.23
2019-05-23T05:48:19.683Z,48.35
2019-05-23T05:50:49.004Z,47.66
2019-05-23T05:53:18.773Z,46.92
2019-05-23T05:55:48.098Z,46.79
2019-05-23T05:58:17.517Z,46.94
2019-05-23T06:00:54.194Z,47.56
2019-05-23T06:03:23.562Z,48.13
2019-05-23T06:06:02.891Z,47.28
2019-05-23T06:08:33.586Z,46.90
2019-05-23T06:11:03.048Z,46.86
2019-05-23T06:13:32.609Z,46.96
2019-05-23T06:16:02.089Z,47.04
2019-05-23T06:18:32.067Z,47.00
2019-05-23T06:21:02.610Z,46.28
2019-05-23T06:23:33.665Z,45.67
2019-05-23T06:26:03.302Z,45.59
2019-05-23T06:28:33.076Z,45.78
2019-05-23T06:31:02.718Z,44.99
2019-05-23T06:33:32.202Z,43.99
2019-05-23T06:36:03.867Z,45.89
2019-05-23T06:38:33.533Z,45.34
2019-05-23T06:41:05.725Z,44.26
2019-05-23T06:43:37.707Z,43.97
2019-05-23T06:46:07.205Z,44.58
2019-05-23T06:48:37.001Z,44.54
2019-05-23T06:51:06.524Z,43.26
2019-05-23T06:53:35.828Z,44.02
2019-05-23T06:56:05.353Z,42.87
2019-05-23T06:58:34.881Z,42.80
2019-05-23T07:01:04.386Z,44.24
2019-05-23T07:03:42.667Z,43.40
2019-05-23T07:06:04.956Z,42.45
2019-05-23T07:08:34.574Z,43.37
2019-05-23T07:11:04.022Z,42.65
2019-05-23T07:13:34.988Z,42.43
2019-05-23T07:16:04.582Z,41.50
2019-05-23T07:18:34.077Z,41.91
2019-05-23T07:21:03.537Z,42.36
2019-05-23T07:23:32.867Z,41.94
2019-05-23T07:26:02.536Z,42.26
2019-05-23T07:28:32.068Z,40.97
2019-05-23T07:31:01.596Z,39.64
2019-05-23T07:33:30.943Z,40.02
2019-05-23T07:36:00.490Z,39.00
2019-05-23T07:38:29.825Z,39.34
2019-05-23T07:40:59.717Z,39.32
2019-05-23T07:43:28.990Z,39.21
2019-05-23T07:45:58.879Z,38.04
2019-05-23T07:48:29.167Z,36.62
2019-05-23T07:50:58.873Z,36.78
2019-05-23T07:53:47.538Z,37.52
2019-05-23T07:56:19.693Z,36.57
2019-05-23T07:58:49.061Z,36.96
2019-05-23T08:01:20.307Z,36.52
2019-05-23T08:03:52.236Z,37.60
2019-05-23T08:06:21.843Z,37.30
2019-05-23T08:08:52.006Z,34.96
2019-05-23T08:11:21.865Z,35.33
2019-05-23T08:13:51.904Z,34.95
2019-05-23T08:16:21.222Z,33.23
2019-05-23T08:18:51.437Z,32.89
2019-05-23T08:21:21.139Z,31.73
2019-05-23T08:23:50.596Z,31.48
2019-05-23T08:26:21.599Z,31.04
2019-05-23T08:29:12.518Z,32.12
2019-05-23T08:31:22.417Z,31.40
2019-05-23T08:33:51.682Z,30.52
2019-05-23T08:36:21.711Z,31.42
2019-05-23T08:38:51.083Z,31.63
2019-05-23T08:41:20.485Z,31.91
2019-05-23T08:43:50.129Z,31.77
2019-05-23T08:46:19.642Z,30.37
2019-05-23T08:48:49.007Z,31.68
2019-05-23T08:51:18.398Z,28.43
2019-05-23T08:53:47.862Z,28.87
2019-05-23T08:56:19.625Z,29.71
2019-05-23T08:58:48.463Z,29.15
2019-05-23T09:01:18.408Z,30.28
2019-05-23T09:03:48.521Z,28.23
2019-05-23T09:06:17.962Z,29.62
2019-05-23T09:08:48.641Z,30.15
2019-05-23T09:11:19.234Z,30.00
2019-05-23T09:13:49.034Z,28.22
2019-05-23T09:16:21.287Z,28.60
2019-05-23T09:18:50.783Z,29.21
2019-05-23T09:21:20.242Z,29.47
2019-05-23T09:23:49.598Z,29.78
2019-05-23T09:26:21.441Z,28.21
2019-05-23T09:28:51.285Z,28.00
2019-05-23T09:31:21.893Z,27.73
2019-05-23T09:33:51.376Z,27.97
2019-05-23T09:36:21.011Z,27.57
2019-05-23T09:38:50.768Z,28.37
2019-05-23T09:41:20.159Z,27.75
2019-05-23T09:43:49.583Z,27.67
2019-05-23T09:46:19.208Z,27.96
2019-05-23T09:48:48.595Z,28.17
2019-05-23T09:51:18.107Z,27.93
2019-05-23T09:53:47.919Z,27.44
2019-05-23T09:56:17.413Z,27.67
2019-05-23T09:58:46.702Z,28.77
2019-05-23T10:01:17.981Z,28.02
2019-05-23T10:03:47.434Z,27.85
2019-05-23T10:06:16.745Z,26.57
2019-05-23T10:08:46.168Z,27.07
2019-05-23T10:11:15.440Z,26.29
2019-05-23T10:13:44.771Z,25.48
2019-05-23T10:16:14.112Z,25.25
2019-05-23T10:18:44.422Z,25.88
2019-05-23T10:21:13.743Z,25.57
2019-05-23T10:23:43.040Z,25.41
2019-05-23T10:26:13.479Z,26.00
2019-05-23T10:28:42.816Z,26.69
2019-05-23T10:31:12.948Z,25.09
2019-05-23T10:33:42.234Z,24.92
2019-05-23T10:36:11.532Z,24.19
2019-05-23T10:38:42.172Z,26.19
2019-05-23T10:41:11.445Z,25.78
2019-05-23T10:43:40.765Z,26.16
2019-05-23T10:46:10.476Z,25.44
2019-05-23T10:48:39.742Z,24.60
2019-05-23T10:51:09.087Z,23.83
2019-05-23T10:53:38.497Z,24.91
2019-05-23T10:56:07.916Z,24.43
2019-05-23T10:58:37.225Z,24.50
2019-05-23T11:01:06.970Z,23.27
2019-05-23T11:03:36.438Z,23.65
2019-05-23T11:06:15.474Z,23.96
2019-05-23T11:08:38.312Z,24.32
2019-05-23T11:11:08.360Z,24.91
2019-05-23T11:13:38.561Z,24.56
2019-05-23T11:16:08.541Z,24.90
2019-05-23T11:18:38.437Z,25.15
2019-05-23T11:21:09.049Z,25.02
2019-05-23T11:23:43.209Z,24.92
2019-05-23T11:26:12.607Z,25.37
2019-05-23T11:28:42.482Z,25.45
2019-05-23T11:31:12.725Z,25.07
2019-05-23T11:33:42.357Z,24.18
2019-05-23T11:36:12.076Z,23.94
2019-05-23T11:38:41.511Z,23.45
2019-05-23T11:41:11.023Z,23.28
2019-05-23T11:43:40.783Z,24.39
2019-05-23T11:46:21.436Z,23.04
2019-05-23T11:48:51.322Z,23.50
2019-05-23T11:51:25.318Z,23.82
2019-05-23T11:54:06.666Z,24.89
2019-05-23T11:56:24.415Z,24.79
2019-05-23T11:58:53.676Z,23.67
2019-05-23T12:01:54.078Z,24.30
2019-05-23T12:04:26.648Z,23.84
2019-05-23T12:06:59.957Z,23.68
2019-05-23T12:09:30.519Z,23.78
2019-05-23T12:11:59.831Z,22.86
2019-05-23T12:14:29.224Z,23.47
2019-05-23T12:16:58.773Z,22.97
2019-05-23T12:19:28.067Z,22.79
2019-05-23T12:21:57.550Z,22.96
2019-05-23T12:24:27.080Z,23.78
2019-05-23T12:26:56.409Z,23.84
2019-05-23T12:29:25.916Z,22.70
2019-05-23T12:31:55.503Z,22.76
2019-05-23T12:34:24.838Z,22.23
2019-05-23T12:37:14.162Z,23.63
2019-05-23T12:39:25.309Z,22.63
2019-05-23T12:41:54.554Z,22.38
2019-05-23T12:44:24.185Z,22.67
2019-05-23T12:46:55.571Z,21.73
2019-05-23T12:49:35.664Z,22.17
2019-05-23T12:52:05.820Z,22.42
2019-05-23T12:54:35.480Z,22.39
2019-05-23T12:57:05.739Z,22.86
2019-05-23T12:59:38.262Z,21.87
2019-05-23T13:02:11.384Z,22.53
2019-05-23T13:04:41.483Z,21.94
2019-05-23T13:07:11.942Z,21.97
2019-05-23T13:09:41.367Z,21.57
2019-05-23T13:12:10.649Z,21.37
2019-05-23T13:14:40.053Z,21.24
2019-05-23T13:17:09.327Z,20.77
2019-05-23T13:19:38.733Z,21.20
2019-05-23T13:22:09.512Z,21.52
2019-05-23T13:24:52.027Z,21.14
2019-05-23T13:27:09.966Z,20.66
2019-05-23T13:29:39.874Z,19.60
2019-05-23T13:32:09.221Z,20.71
2019-05-23T13:34:38.673Z,20.72
2019-05-23T13:37:09.901Z,21.31
2019-05-23T13:39:39.247Z,20.51
2019-05-23T13:42:08.649Z,20.62
2019-05-23T13:44:38.032Z,21.11
2019-05-23T13:47:07.427Z,20.43
2019-05-23T13:49:36.904Z,20.24
2019-05-23T13:52:06.211Z,20.64
2019-05-23T13:54:36.967Z,20.26
2019-05-23T13:57:08.209Z,20.03
2019-05-23T13:59:38.352Z,20.66
2019-05-23T14:02:08.760Z,21.62
2019-05-23T14:04:38.056Z,20.65
2019-05-23T14:07:09.212Z,21.33
2019-05-23T14:09:38.681Z,20.95
2019-05-23T14:12:20.858Z,21.07
2019-05-23T14:14:39.670Z,21.41
2019-05-23T14:17:19.277Z,19.83
2019-05-23T14:19:48.572Z,21.06
2019-05-23T14:22:18.068Z,20.37
2019-05-23T14:24:47.433Z,20.58
2019-05-23T14:27:24.121Z,20.27
2019-05-23T14:29:53.614Z,20.70
2019-05-23T14:32:30.494Z,20.45
2019-05-23T14:34:59.833Z,21.39
2019-05-23T14:37:37.426Z,20.74
2019-05-23T14:40:09.599Z,20.14
2019-05-23T14:42:57.926Z,20.01
2019-05-23T14:45:52.636Z,20.01
2019-05-23T14:48:39.785Z,19.56
2019-05-23T14:51:34.356Z,20.06
2019-05-23T14:54:13.777Z,19.92
2019-05-23T14:56:43.518Z,20.41
2019-05-23T14:59:12.876Z,20.13
2019-05-23T15:01:42.455Z,20.40
2019-05-23T15:04:11.847Z,21.29
2019-05-23T15:06:41.120Z,20.54
2019-05-23T15:09:10.604Z,20.46
2019-05-23T15:11:40.185Z,20.80
2019-05-23T15:14:09.579Z,20.55
2019-05-23T15:16:38.880Z,20.68
2019-05-23T15:19:08.275Z,21.28
2019-05-23T15:21:37.657Z,21.12
2019-05-23T15:24:07.135Z,21.10
2019-05-23T15:26:36.706Z,20.72
2019-05-23T15:29:06.340Z,21.11
2019-05-23T15:31:35.623Z,20.51
2019-05-23T15:34:12.363Z,20.72
2019-05-23T15:36:41.871Z,21.03
2019-05-23T15:39:11.850Z,20.84
2019-05-23T15:41:41.265Z,21.03
2019-05-23T15:44:24.186Z,20.70
2019-05-23T15:46:41.764Z,21.05
2019-05-23T15:49:12.729Z,20.84
2019-05-23T15:51:53.512Z,21.22
2019-05-23T15:54:41.784Z,21.40
2019-05-23T15:57:24.809Z,20.99
2019-05-23T16:00:13.157Z,20.88
2019-05-23T16:02:49.733Z,19.93
2019-05-23T16:05:19.441Z,20.25
2019-05-23T16:07:50.131Z,20.66
2019-05-23T16:10:20.007Z,20.21
2019-05-23T16:12:49.499Z,21.01
2019-05-23T16:15:19.055Z,21.55
2019-05-23T16:17:48.496Z,21.19
2019-05-23T16:20:18.004Z,20.42
2019-05-23T16:22:47.591Z,20.30
2019-05-23T16:25:17.215Z,20.79
2019-05-23T16:27:46.807Z,20.63
2019-05-23T16:30:16.297Z,19.80
2019-05-23T16:32:46.746Z,19.46
2019-05-23T16:35:16.534Z,18.57
2019-05-23T16:37:46.025Z,18.31
2019-05-23T16:40:15.406Z,18.22
2019-05-23T16:42:45.058Z,18.63
2019-05-23T16:45:14.690Z,18.62
2019-05-23T16:47:44.059Z,18.45
2019-05-23T16:50:14.068Z,18.11
2019-05-23T16:52:43.515Z,17.81
2019-05-23T16:55:26.352Z,18.42
2019-05-23T16:58:00.185Z,18.46
2019-05-23T17:00:54.200Z,17.54
2019-05-23T17:03:30.456Z,17.71
2019-05-23T17:06:09.221Z,17.91
2019-05-23T17:09:03.639Z,18.45
2019-05-23T17:11:48.035Z,18.45
2019-05-23T17:14:23.187Z,18.15
2019-05-23T17:17:17.592Z,18.37
2019-05-23T17:20:03.126Z,17.96
2019-05-23T17:22:41.261Z,18.47
2019-05-23T17:25:28.485Z,18.89
2019-05-23T17:28:03.838Z,18.89
2019-05-23T17:30:42.288Z,19.07
2019-05-23T17:33:11.623Z,18.70
2019-05-23T17:35:41.093Z,19.27
2019-05-23T17:38:10.451Z,19.87
2019-05-23T17:40:39.869Z,18.69
2019-05-23T17:43:09.457Z,18.46
2019-05-23T17:45:38.870Z,19.15
2019-05-23T17:48:08.367Z,19.40
2019-05-23T17:50:37.679Z,18.58
2019-05-23T17:53:07.058Z,18.28
2019-05-23T17:55:36.774Z,18.34
2019-05-23T17:58:06.379Z,19.46
2019-05-23T18:00:39.968Z,18.58
2019-05-23T18:03:09.530Z,18.94
2019-05-23T18:05:38.887Z,19.11
2019-05-23T18:08:09.995Z,18.28
2019-05-23T18:10:45.393Z,17.99
2019-05-23T18:13:10.995Z,18.23
2019-05-23T18:15:40.631Z,18.87
2019-05-23T18:18:10.089Z,18.68
2019-05-23T18:20:41.447Z,19.26
2019-05-23T18:23:11.182Z,18.72
2019-05-23T18:25:41.413Z,19.38
2019-05-23T18:28:12.238Z,19.41
2019-05-23T18:30:55.309Z,20.04
2019-05-23T18:33:25.287Z,20.28
2019-05-23T18:35:56.277Z,20.52
2019-05-23T18:38:25.910Z,20.33
2019-05-23T18:41:04.101Z,20.93
2019-05-23T18:43:26.976Z,21.21
2019-05-23T18:45:59.807Z,21.57
2019-05-23T18:48:29.605Z,21.89
2019-05-23T18:50:59.096Z,22.58
2019-05-23T18:53:29.171Z,22.30
2019-05-23T18:55:58.482Z,22.40
2019-05-23T18:58:28.065Z,21.56
2019-05-23T19:01:32.773Z,21.87
2019-05-23T19:04:02.196Z,22.30
2019-05-23T19:06:31.835Z,21.46
2019-05-23T19:09:01.935Z,20.99
2019-05-23T19:11:31.662Z,21.36
2019-05-23T19:14:01.378Z,21.07
2019-05-23T19:16:31.654Z,21.38
2019-05-23T19:19:01.158Z,21.25
2019-05-23T19:21:31.438Z,21.64
2019-05-23T19:24:01.043Z,21.76
2019-05-23T19:26:30.925Z,21.71
2019-05-23T19:29:01.369Z,22.13
2019-05-23T19:31:32.071Z,22.02
2019-05-23T19:34:01.440Z,22.29
2019-05-23T19:36:31.199Z,22.10
2019-05-23T19:39:05.494Z,22.52
2019-05-23T19:41:37.940Z,22.44
2019-05-23T19:44:09.588Z,23.36
2019-05-23T19:46:38.877Z,23.50
2019-05-23T19:49:08.480Z,23.16
2019-05-23T19:51:37.819Z,23.82
2019-05-23T19:54:08.220Z,24.80
2019-05-23T19:56:37.824Z,23.79
2019-05-23T19:59:14.750Z,24.25
2019-05-23T20:02:12.975Z,24.46
2019-05-23T20:04:47.605Z,24.58
2019-05-23T20:07:17.036Z,24.28
2019-05-23T20:09:46.583Z,25.11
2019-05-23T20:12:16.234Z,24.94
2019-05-23T20:14:47.950Z,25.17
2019-05-23T20:17:17.490Z,25.13
2019-05-23T20:19:50.179Z,25.53
2019-05-23T20:22:17.980Z,25.22
2019-05-23T20:24:47.381Z,26.09
2019-05-23T20:27:16.686Z,25.89
2019-05-23T20:29:46.042Z,26.14
2019-05-23T20:32:15.660Z,26.00
2019-05-23T20:34:45.002Z,26.34
2019-05-23T20:37:14.617Z,27.22
2019-05-23T20:39:44.299Z,27.61
2019-05-23T20:42:13.619Z,27.47
2019-05-23T20:44:43.171Z,27.13
2019-05-23T20:47:13.268Z,27.77
2019-05-23T20:49:42.731Z,27.95
2019-05-23T20:52:12.037Z,28.08
2019-05-23T20:54:41.623Z,28.13
2019-05-23T20:57:11.485Z,28.77
2019-05-23T20:59:41.252Z,28.94
2019-05-23T21:02:10.709Z,29.94
2019-05-23T21:04:40.328Z,28.87
2019-05-23T21:07:09.677Z,29.50
2019-05-23T21:09:39.203Z,30.02
2019-05-23T21:12:08.735Z,30.00
2019-05-23T21:14:38.083Z,29.84
2019-05-23T21:17:07.381Z,30.23
2019-05-23T21:19:37.179Z,30.67
2019-05-23T21:22:06.603Z,31.11
2019-05-23T21:24:36.039Z,31.97
2019-05-23T21:27:05.368Z,32.27
2019-05-23T21:29:36.040Z,32.55
2019-05-23T21:32:05.294Z,32.91
2019-05-23T21:34:34.637Z,32.74
2019-05-23T21:37:03.970Z,32.98
2019-05-23T21:39:33.284Z,33.17
2019-05-23T21:42:02.841Z,33.33
2019-05-23T21:44:32.185Z,33.36
2019-05-23T21:47:01.482Z,33.29
2019-05-23T21:49:38.093Z,33.20
2019-05-23T21:52:16.970Z,33.09
2019-05-23T21:54:49.846Z,34.58
2019-05-23T21:57:19.697Z,34.96
2019-05-23T21:59:49.104Z,34.69
2019-05-23T22:02:27.774Z,34.72
2019-05-23T22:05:03.105Z,35.86
2019-05-23T22:07:34.149Z,35.71
2019-05-23T22:10:04.882Z,36.46
2019-05-23T22:12:34.255Z,36.80
2019-05-23T22:15:05.275Z,35.75
2019-05-23T22:17:34.622Z,35.76
2019-05-23T22:20:04.119Z,36.33
2019-05-23T22:22:33.438Z,36.79
2019-05-23T22:25:02.752Z,37.31
2019-05-23T22:27:32.134Z,36.67
2019-05-23T22:30:01.790Z,37.36
2019-05-23T22:32:31.224Z,37.44
2019-05-23T22:35:08.612Z,37.44
2019-05-23T22:37:37.964Z,37.64
2019-05-23T22:40:10.366Z,37.99
2019-05-23T22:42:40.030Z,38.19
2019-05-23T22:45:14.939Z,38.39
2019-05-23T22:47:44.283Z,37.96
2019-05-23T22:50:13.719Z,39.46
2019-05-23T22:52:43.038Z,39.63
2019-05-23T22:55:12.315Z,39.24
2019-05-23T22:57:41.616Z,39.04
2019-05-23T23:00:12.217Z,39.22
2019-05-23T23:02:41.502Z,39.92
2019-05-23T23:05:10.784Z,40.73
2019-05-23T23:07:40.079Z,40.82
2019-05-23T23:10:09.506Z,40.17
2019-05-23T23:12:38.821Z,40.31
2019-05-23T23:15:08.353Z,40.14
2019-05-23T23:17:37.688Z,40.38
2019-05-23T23:20:07.907Z,40.24
2019-05-23T23:22:37.632Z,40.12
2019-05-23T23:25:08.045Z,40.05
2019-05-23T23:27:37.327Z,39.27
2019-05-23T23:30:07.139Z,39.30
2019-05-23T23:32:36.437Z,40.08
2019-05-23T23:35:05.729Z,40.64
2019-05-23T23:37:35.116Z,40.66
2019-05-23T23:40:05.495Z,40.86
2019-05-23T23:42:34.767Z,40.74
2019-05-23T23:45:22.042Z,40.25
2019-05-23T23:48:09.318Z,40.95
2019-05-23T23:50:56.085Z,40.73
2019-05-23T23:53:43.023Z,40.80
2019-05-23T23:56:30.328Z,41.45
2019-05-23T23:58:58.636Z,41.35
